sensor_id;sensor_type;location;lat;lon;timestamp;noise_LAeq;noise_LA_min;noise_LA_max;noise_LA01;noise_LA95
70245;Laerm;57637;49.272;8.590;2023-07-22T00:02:14;40.34;35.84;46.38;;
70245;Laerm;57637;49.272;8.590;2023-07-22T00:04:39;41.92;36.78;52.51;;
70245;Laerm;57637;49.272;8.590;2023-07-22T00:07:05;39.91;34.38;45.49;;
70245;Laerm;57637;49.272;8.590;2023-07-22T00:09:32;41.75;34.58;59.59;;
70245;Laerm;57637;49.272;8.590;2023-07-22T00:11:59;43.74;35.39;58.10;;
70245;Laerm;57637;49.272;8.590;2023-07-22T00:14:25;40.52;35.81;46.20;;
70245;Laerm;57637;49.272;8.590;2023-07-22T00:16:50;40.27;34.31;46.62;;
70245;Laerm;57637;49.272;8.590;2023-07-22T00:19:15;39.98;35.65;44.37;;
70245;Laerm;57637;49.272;8.590;2023-07-22T00:21:41;40.76;36.20;55.83;;
70245;Laerm;57637;49.272;8.590;2023-07-22T00:24:07;40.38;34.98;52.11;;
70245;Laerm;57637;49.272;8.590;2023-07-22T00:26:32;39.77;34.37;53.62;;
70245;Laerm;57637;49.272;8.590;2023-07-22T00:28:58;38.03;33.69;50.54;;
70245;Laerm;57637;49.272;8.590;2023-07-22T00:31:23;39.46;35.84;44.46;;
70245;Laerm;57637;49.272;8.590;2023-07-22T00:33:49;44.01;36.71;51.38;;
70245;Laerm;57637;49.272;8.590;2023-07-22T00:36:14;44.15;36.43;55.74;;
70245;Laerm;57637;49.272;8.590;2023-07-22T00:38:40;39.43;34.24;45.12;;
70245;Laerm;57637;49.272;8.590;2023-07-22T00:41:06;38.37;32.69;47.47;;
70245;Laerm;57637;49.272;8.590;2023-07-22T00:43:32;37.90;32.51;43.99;;
70245;Laerm;57637;49.272;8.590;2023-07-22T00:45:58;38.82;34.07;48.58;;
70245;Laerm;57637;49.272;8.590;2023-07-22T00:48:23;37.65;33.17;43.35;;
70245;Laerm;57637;49.272;8.590;2023-07-22T00:50:49;39.92;35.26;44.23;;
70245;Laerm;57637;49.272;8.590;2023-07-22T00:53:15;38.99;34.91;46.49;;
70245;Laerm;57637;49.272;8.590;2023-07-22T00:55:41;43.56;37.57;52.59;;
70245;Laerm;57637;49.272;8.590;2023-07-22T00:58:06;42.76;36.36;55.12;;
70245;Laerm;57637;49.272;8.590;2023-07-22T01:00:32;41.07;34.66;55.06;;
70245;Laerm;57637;49.272;8.590;2023-07-22T01:02:58;38.50;34.20;44.17;;
70245;Laerm;57637;49.272;8.590;2023-07-22T01:05:25;39.96;34.90;46.14;;
70245;Laerm;57637;49.272;8.590;2023-07-22T01:07:51;41.21;36.74;45.73;;
70245;Laerm;57637;49.272;8.590;2023-07-22T01:10:17;40.14;33.23;45.62;;
70245;Laerm;57637;49.272;8.590;2023-07-22T01:12:44;38.36;33.22;50.45;;
70245;Laerm;57637;49.272;8.590;2023-07-22T01:15:10;38.19;32.74;50.10;;
70245;Laerm;57637;49.272;8.590;2023-07-22T01:17:38;34.93;31.33;46.14;;
70245;Laerm;57637;49.272;8.590;2023-07-22T01:20:05;35.54;32.02;45.64;;
70245;Laerm;57637;49.272;8.590;2023-07-22T01:22:32;35.78;30.34;57.10;;
70245;Laerm;57637;49.272;8.590;2023-07-22T01:24:58;35.71;30.92;50.18;;
70245;Laerm;57637;49.272;8.590;2023-07-22T01:27:24;46.39;31.44;58.61;;
70245;Laerm;57637;49.272;8.590;2023-07-22T01:29:52;52.26;34.73;60.45;;
70245;Laerm;57637;49.272;8.590;2023-07-22T01:32:18;46.53;40.66;58.07;;
70245;Laerm;57637;49.272;8.590;2023-07-22T01:34:45;48.08;37.72;57.09;;
70245;Laerm;57637;49.272;8.590;2023-07-22T01:37:10;43.49;34.42;52.41;;
70245;Laerm;57637;49.272;8.590;2023-07-22T01:39:36;43.54;37.87;54.01;;
70245;Laerm;57637;49.272;8.590;2023-07-22T01:42:02;40.12;32.80;56.28;;
70245;Laerm;57637;49.272;8.590;2023-07-22T01:44:27;43.89;31.86;56.00;;
70245;Laerm;57637;49.272;8.590;2023-07-22T01:46:53;40.96;31.59;57.01;;
70245;Laerm;57637;49.272;8.590;2023-07-22T01:49:18;49.03;32.29;57.01;;
70245;Laerm;57637;49.272;8.590;2023-07-22T01:51:44;38.00;32.05;53.95;;
70245;Laerm;57637;49.272;8.590;2023-07-22T01:54:10;41.56;32.28;57.58;;
70245;Laerm;57637;49.272;8.590;2023-07-22T01:56:38;44.44;35.89;53.93;;
70245;Laerm;57637;49.272;8.590;2023-07-22T01:59:04;41.44;36.88;49.86;;
70245;Laerm;57637;49.272;8.590;2023-07-22T02:01:29;40.89;34.40;56.35;;
70245;Laerm;57637;49.272;8.590;2023-07-22T02:03:55;40.69;33.25;57.67;;
70245;Laerm;57637;49.272;8.590;2023-07-22T02:06:20;40.07;32.69;52.85;;
70245;Laerm;57637;49.272;8.590;2023-07-22T02:08:46;37.95;32.16;45.17;;
70245;Laerm;57637;49.272;8.590;2023-07-22T02:11:12;39.32;33.59;45.46;;
70245;Laerm;57637;49.272;8.590;2023-07-22T02:13:37;40.65;36.33;48.21;;
70245;Laerm;57637;49.272;8.590;2023-07-22T02:16:03;40.50;36.07;53.02;;
70245;Laerm;57637;49.272;8.590;2023-07-22T02:18:29;41.04;35.96;59.73;;
70245;Laerm;57637;49.272;8.590;2023-07-22T02:20:55;39.82;33.30;54.02;;
70245;Laerm;57637;49.272;8.590;2023-07-22T02:23:22;42.25;34.66;52.74;;
70245;Laerm;57637;49.272;8.590;2023-07-22T02:25:51;39.55;33.93;44.83;;
70245;Laerm;57637;49.272;8.590;2023-07-22T02:28:17;37.80;33.85;43.93;;
70245;Laerm;57637;49.272;8.590;2023-07-22T02:30:46;39.33;33.68;55.05;;
70245;Laerm;57637;49.272;8.590;2023-07-22T02:33:13;45.91;34.00;62.14;;
70245;Laerm;57637;49.272;8.590;2023-07-22T02:35:40;43.73;34.97;58.27;;
70245;Laerm;57637;49.272;8.590;2023-07-22T02:38:06;42.44;35.49;55.20;;
70245;Laerm;57637;49.272;8.590;2023-07-22T02:40:34;41.59;35.64;52.42;;
70245;Laerm;57637;49.272;8.590;2023-07-22T02:43:00;39.50;34.20;54.78;;
70245;Laerm;57637;49.272;8.590;2023-07-22T02:45:25;39.19;33.52;46.42;;
70245;Laerm;57637;49.272;8.590;2023-07-22T02:47:50;42.57;36.89;50.59;;
70245;Laerm;57637;49.272;8.590;2023-07-22T02:50:16;43.24;36.22;49.44;;
70245;Laerm;57637;49.272;8.590;2023-07-22T02:52:41;44.53;38.36;56.37;;
70245;Laerm;57637;49.272;8.590;2023-07-22T02:55:14;45.64;37.34;60.58;;
70245;Laerm;57637;49.272;8.590;2023-07-22T02:57:41;42.67;34.71;53.74;;
70245;Laerm;57637;49.272;8.590;2023-07-22T03:00:07;48.03;34.21;61.33;;
70245;Laerm;57637;49.272;8.590;2023-07-22T03:02:37;48.34;33.76;58.40;;
70245;Laerm;57637;49.272;8.590;2023-07-22T03:05:09;44.70;33.91;56.55;;
70245;Laerm;57637;49.272;8.590;2023-07-22T03:07:38;38.51;31.85;53.56;;
70245;Laerm;57637;49.272;8.590;2023-07-22T03:10:07;42.31;31.15;59.31;;
70245;Laerm;57637;49.272;8.590;2023-07-22T03:12:34;36.99;31.25;50.74;;
70245;Laerm;57637;49.272;8.590;2023-07-22T03:15:00;36.20;30.52;51.63;;
70245;Laerm;57637;49.272;8.590;2023-07-22T03:17:26;32.22;28.86;52.14;;
70245;Laerm;57637;49.272;8.590;2023-07-22T03:19:51;38.35;30.58;56.11;;
70245;Laerm;57637;49.272;8.590;2023-07-22T03:22:17;34.42;31.05;41.82;;
70245;Laerm;57637;49.272;8.590;2023-07-22T03:24:43;38.92;32.22;52.36;;
70245;Laerm;57637;49.272;8.590;2023-07-22T03:27:09;35.63;30.25;47.22;;
70245;Laerm;57637;49.272;8.590;2023-07-22T03:29:35;31.63;29.47;35.50;;
70245;Laerm;57637;49.272;8.590;2023-07-22T03:32:01;31.95;29.45;41.13;;
70245;Laerm;57637;49.272;8.590;2023-07-22T03:34:27;31.70;29.27;40.91;;
70245;Laerm;57637;49.272;8.590;2023-07-22T03:36:52;32.99;29.77;44.60;;
70245;Laerm;57637;49.272;8.590;2023-07-22T03:39:18;35.24;30.55;52.76;;
70245;Laerm;57637;49.272;8.590;2023-07-22T03:41:43;36.22;30.85;49.63;;
70245;Laerm;57637;49.272;8.590;2023-07-22T03:44:08;35.33;30.71;47.46;;
70245;Laerm;57637;49.272;8.590;2023-07-22T03:46:34;35.56;31.28;43.49;;
70245;Laerm;57637;49.272;8.590;2023-07-22T03:48:59;35.75;32.11;48.77;;
70245;Laerm;57637;49.272;8.590;2023-07-22T03:51:25;38.04;31.51;59.36;;
70245;Laerm;57637;49.272;8.590;2023-07-22T03:53:50;38.29;31.58;51.52;;
70245;Laerm;57637;49.272;8.590;2023-07-22T03:56:16;41.40;31.50;66.59;;
70245;Laerm;57637;49.272;8.590;2023-07-22T03:58:41;41.13;33.82;52.36;;
70245;Laerm;57637;49.272;8.590;2023-07-22T04:01:07;39.74;34.18;52.52;;
70245;Laerm;57637;49.272;8.590;2023-07-22T04:03:35;42.65;34.89;56.60;;
70245;Laerm;57637;49.272;8.590;2023-07-22T04:06:00;44.21;34.68;58.14;;
70245;Laerm;57637;49.272;8.590;2023-07-22T04:08:26;42.44;35.60;62.10;;
70245;Laerm;57637;49.272;8.590;2023-07-22T04:10:55;45.37;34.53;71.81;;
70245;Laerm;57637;49.272;8.590;2023-07-22T04:13:23;43.24;34.91;60.08;;
70245;Laerm;57637;49.272;8.590;2023-07-22T04:15:49;43.20;34.89;67.70;;
70245;Laerm;57637;49.272;8.590;2023-07-22T04:18:15;44.03;36.71;61.42;;
70245;Laerm;57637;49.272;8.590;2023-07-22T04:20:41;49.04;37.72;68.06;;
70245;Laerm;57637;49.272;8.590;2023-07-22T04:23:06;47.89;37.69;64.88;;
70245;Laerm;57637;49.272;8.590;2023-07-22T04:25:32;42.49;36.94;51.53;;
70245;Laerm;57637;49.272;8.590;2023-07-22T04:27:57;44.74;36.46;61.44;;
70245;Laerm;57637;49.272;8.590;2023-07-22T04:30:22;41.80;34.73;55.74;;
70245;Laerm;57637;49.272;8.590;2023-07-22T04:32:50;43.04;35.74;57.31;;
70245;Laerm;57637;49.272;8.590;2023-07-22T04:35:18;45.79;38.28;63.72;;
70245;Laerm;57637;49.272;8.590;2023-07-22T04:37:44;46.27;39.05;61.76;;
70245;Laerm;57637;49.272;8.590;2023-07-22T04:40:11;44.75;38.38;57.23;;
70245;Laerm;57637;49.272;8.590;2023-07-22T04:42:42;46.23;39.56;61.10;;
70245;Laerm;57637;49.272;8.590;2023-07-22T04:45:08;48.01;38.96;69.48;;
70245;Laerm;57637;49.272;8.590;2023-07-22T04:47:38;42.98;38.30;55.56;;
70245;Laerm;57637;49.272;8.590;2023-07-22T04:50:07;43.93;36.93;61.57;;
70245;Laerm;57637;49.272;8.590;2023-07-22T04:52:36;43.48;35.79;59.35;;
70245;Laerm;57637;49.272;8.590;2023-07-22T04:55:02;42.33;36.46;55.21;;
70245;Laerm;57637;49.272;8.590;2023-07-22T04:57:43;44.78;35.65;58.66;;
70245;Laerm;57637;49.272;8.590;2023-07-22T05:00:11;43.87;35.26;60.04;;
70245;Laerm;57637;49.272;8.590;2023-07-22T05:02:44;43.28;35.52;62.08;;
70245;Laerm;57637;49.272;8.590;2023-07-22T05:05:14;47.72;35.45;69.22;;
70245;Laerm;57637;49.272;8.590;2023-07-22T05:07:39;45.10;35.41;61.91;;
70245;Laerm;57637;49.272;8.590;2023-07-22T05:10:06;46.77;36.45;61.57;;
70245;Laerm;57637;49.272;8.590;2023-07-22T05:12:32;45.21;35.80;60.90;;
70245;Laerm;57637;49.272;8.590;2023-07-22T05:14:58;48.12;36.17;67.46;;
70245;Laerm;57637;49.272;8.590;2023-07-22T05:17:23;44.32;34.72;64.40;;
70245;Laerm;57637;49.272;8.590;2023-07-22T05:19:50;40.76;34.17;54.86;;
70245;Laerm;57637;49.272;8.590;2023-07-22T05:22:16;40.11;35.73;54.78;;
70245;Laerm;57637;49.272;8.590;2023-07-22T05:24:42;39.43;34.72;54.04;;
70245;Laerm;57637;49.272;8.590;2023-07-22T05:27:07;44.21;35.88;61.60;;
70245;Laerm;57637;49.272;8.590;2023-07-22T05:29:32;46.44;36.03;63.96;;
70245;Laerm;57637;49.272;8.590;2023-07-22T05:31:58;46.13;34.85;63.18;;
70245;Laerm;57637;49.272;8.590;2023-07-22T05:34:23;42.49;35.41;61.90;;
70245;Laerm;57637;49.272;8.590;2023-07-22T05:36:48;42.50;35.53;56.80;;
70245;Laerm;57637;49.272;8.590;2023-07-22T05:39:14;41.98;34.98;62.35;;
70245;Laerm;57637;49.272;8.590;2023-07-22T05:41:42;42.42;36.03;57.19;;
70245;Laerm;57637;49.272;8.590;2023-07-22T05:44:08;40.22;34.74;55.46;;
70245;Laerm;57637;49.272;8.590;2023-07-22T05:46:33;39.15;33.88;48.59;;
70245;Laerm;57637;49.272;8.590;2023-07-22T05:48:58;40.22;34.62;54.09;;
70245;Laerm;57637;49.272;8.590;2023-07-22T05:51:24;41.41;34.81;58.27;;
70245;Laerm;57637;49.272;8.590;2023-07-22T05:53:49;42.38;34.29;61.08;;
70245;Laerm;57637;49.272;8.590;2023-07-22T05:56:14;41.29;33.94;63.12;;
70245;Laerm;57637;49.272;8.590;2023-07-22T05:58:40;39.07;33.48;61.38;;
70245;Laerm;57637;49.272;8.590;2023-07-22T06:01:05;40.71;34.25;63.91;;
70245;Laerm;57637;49.272;8.590;2023-07-22T06:03:31;40.17;33.47;59.56;;
70245;Laerm;57637;49.272;8.590;2023-07-22T06:05:56;43.95;34.68;63.27;;
70245;Laerm;57637;49.272;8.590;2023-07-22T06:08:21;41.86;34.88;63.17;;
70245;Laerm;57637;49.272;8.590;2023-07-22T06:10:47;40.29;33.05;58.50;;
70245;Laerm;57637;49.272;8.590;2023-07-22T06:13:12;43.51;32.65;63.93;;
70245;Laerm;57637;49.272;8.590;2023-07-22T06:15:37;48.34;33.57;65.76;;
70245;Laerm;57637;49.272;8.590;2023-07-22T06:18:03;43.18;33.11;61.42;;
70245;Laerm;57637;49.272;8.590;2023-07-22T06:20:33;39.05;33.75;57.66;;
70245;Laerm;57637;49.272;8.590;2023-07-22T06:22:58;40.60;34.70;56.42;;
70245;Laerm;57637;49.272;8.590;2023-07-22T06:25:24;38.72;33.38;52.32;;
70245;Laerm;57637;49.272;8.590;2023-07-22T06:27:49;40.82;32.76;56.99;;
70245;Laerm;57637;49.272;8.590;2023-07-22T06:30:14;41.39;33.05;58.89;;
70245;Laerm;57637;49.272;8.590;2023-07-22T06:32:40;40.76;32.53;61.61;;
70245;Laerm;57637;49.272;8.590;2023-07-22T06:35:05;39.04;32.73;54.18;;
70245;Laerm;57637;49.272;8.590;2023-07-22T06:37:31;41.60;32.40;64.96;;
70245;Laerm;57637;49.272;8.590;2023-07-22T06:39:56;38.60;32.33;57.67;;
70245;Laerm;57637;49.272;8.590;2023-07-22T06:42:21;45.96;31.71;72.81;;
70245;Laerm;57637;49.272;8.590;2023-07-22T06:44:47;38.19;31.18;52.04;;
70245;Laerm;57637;49.272;8.590;2023-07-22T06:47:13;39.34;31.61;55.79;;
70245;Laerm;57637;49.272;8.590;2023-07-22T06:49:38;37.20;32.25;55.20;;
70245;Laerm;57637;49.272;8.590;2023-07-22T06:52:04;35.40;31.77;49.23;;
70245;Laerm;57637;49.272;8.590;2023-07-22T06:54:30;45.92;31.69;71.43;;
70245;Laerm;57637;49.272;8.590;2023-07-22T06:56:55;42.82;32.48;60.12;;
70245;Laerm;57637;49.272;8.590;2023-07-22T06:59:21;45.16;31.85;66.29;;
70245;Laerm;57637;49.272;8.590;2023-07-22T07:01:46;41.05;32.15;59.56;;
70245;Laerm;57637;49.272;8.590;2023-07-22T07:04:11;40.55;32.98;56.14;;
70245;Laerm;57637;49.272;8.590;2023-07-22T07:06:37;38.02;32.51;51.54;;
70245;Laerm;57637;49.272;8.590;2023-07-22T07:09:03;43.87;33.25;60.08;;
70245;Laerm;57637;49.272;8.590;2023-07-22T07:11:28;40.35;33.28;60.22;;
70245;Laerm;57637;49.272;8.590;2023-07-22T07:13:54;39.04;32.17;54.87;;
70245;Laerm;57637;49.272;8.590;2023-07-22T07:16:26;40.90;32.70;57.29;;
70245;Laerm;57637;49.272;8.590;2023-07-22T07:18:52;42.34;32.71;64.57;;
70245;Laerm;57637;49.272;8.590;2023-07-22T07:21:18;39.34;31.48;50.68;;
70245;Laerm;57637;49.272;8.590;2023-07-22T07:23:44;37.29;32.23;52.43;;
70245;Laerm;57637;49.272;8.590;2023-07-22T07:26:09;36.65;31.87;50.32;;
70245;Laerm;57637;49.272;8.590;2023-07-22T07:28:35;40.54;31.05;57.29;;
70245;Laerm;57637;49.272;8.590;2023-07-22T07:31:00;40.69;32.50;50.18;;
70245;Laerm;57637;49.272;8.590;2023-07-22T07:33:25;43.45;31.58;64.41;;
70245;Laerm;57637;49.272;8.590;2023-07-22T07:35:51;41.62;32.17;57.27;;
70245;Laerm;57637;49.272;8.590;2023-07-22T07:38:16;39.16;32.49;56.51;;
70245;Laerm;57637;49.272;8.590;2023-07-22T07:40:41;37.51;31.85;57.54;;
70245;Laerm;57637;49.272;8.590;2023-07-22T07:43:07;37.11;31.73;52.78;;
70245;Laerm;57637;49.272;8.590;2023-07-22T07:45:32;42.20;33.38;58.09;;
70245;Laerm;57637;49.272;8.590;2023-07-22T07:47:57;46.91;36.24;60.88;;
70245;Laerm;57637;49.272;8.590;2023-07-22T07:50:23;42.23;34.25;58.76;;
70245;Laerm;57637;49.272;8.590;2023-07-22T07:52:48;44.71;32.95;60.63;;
70245;Laerm;57637;49.272;8.590;2023-07-22T07:55:14;47.02;34.44;64.82;;
70245;Laerm;57637;49.272;8.590;2023-07-22T07:57:39;44.43;33.90;56.01;;
70245;Laerm;57637;49.272;8.590;2023-07-22T08:00:05;45.66;35.32;60.26;;
70245;Laerm;57637;49.272;8.590;2023-07-22T08:02:32;44.27;32.21;61.15;;
70245;Laerm;57637;49.272;8.590;2023-07-22T08:04:58;44.07;31.61;67.28;;
70245;Laerm;57637;49.272;8.590;2023-07-22T08:07:23;41.64;33.02;59.36;;
70245;Laerm;57637;49.272;8.590;2023-07-22T08:09:50;41.73;33.72;55.24;;
70245;Laerm;57637;49.272;8.590;2023-07-22T08:12:15;42.05;32.31;60.15;;
70245;Laerm;57637;49.272;8.590;2023-07-22T08:14:41;38.91;31.96;56.75;;
70245;Laerm;57637;49.272;8.590;2023-07-22T08:17:07;48.90;35.70;62.01;;
70245;Laerm;57637;49.272;8.590;2023-07-22T08:19:32;40.27;35.33;52.93;;
70245;Laerm;57637;49.272;8.590;2023-07-22T08:21:57;41.81;36.56;55.41;;
70245;Laerm;57637;49.272;8.590;2023-07-22T08:24:23;42.13;38.04;56.90;;
70245;Laerm;57637;49.272;8.590;2023-07-22T08:26:48;40.48;38.03;52.15;;
70245;Laerm;57637;49.272;8.590;2023-07-22T08:29:13;42.42;34.26;58.83;;
70245;Laerm;57637;49.272;8.590;2023-07-22T08:31:39;43.02;33.59;57.70;;
70245;Laerm;57637;49.272;8.590;2023-07-22T08:34:05;43.15;32.81;62.90;;
70245;Laerm;57637;49.272;8.590;2023-07-22T08:36:30;40.34;31.78;60.64;;
70245;Laerm;57637;49.272;8.590;2023-07-22T08:38:55;43.99;33.47;66.65;;
70245;Laerm;57637;49.272;8.590;2023-07-22T08:41:21;41.53;32.92;58.34;;
70245;Laerm;57637;49.272;8.590;2023-07-22T08:43:49;40.28;32.67;52.10;;
70245;Laerm;57637;49.272;8.590;2023-07-22T08:46:19;42.03;33.48;61.68;;
70245;Laerm;57637;49.272;8.590;2023-07-22T08:48:47;44.66;33.08;62.46;;
70245;Laerm;57637;49.272;8.590;2023-07-22T08:51:18;43.10;31.89;57.15;;
70245;Laerm;57637;49.272;8.590;2023-07-22T08:53:47;37.53;32.04;60.54;;
70245;Laerm;57637;49.272;8.590;2023-07-22T08:56:12;38.72;32.30;53.97;;
70245;Laerm;57637;49.272;8.590;2023-07-22T08:58:39;39.50;32.17;55.72;;
70245;Laerm;57637;49.272;8.590;2023-07-22T09:01:06;36.54;31.48;49.94;;
70245;Laerm;57637;49.272;8.590;2023-07-22T09:03:32;37.81;32.02;51.67;;
70245;Laerm;57637;49.272;8.590;2023-07-22T09:05:58;38.93;32.83;56.62;;
70245;Laerm;57637;49.272;8.590;2023-07-22T09:08:24;38.83;31.02;54.94;;
70245;Laerm;57637;49.272;8.590;2023-07-22T09:10:49;40.05;32.66;68.04;;
70245;Laerm;57637;49.272;8.590;2023-07-22T09:13:17;46.73;33.32;73.64;;
70245;Laerm;57637;49.272;8.590;2023-07-22T09:15:44;46.34;33.98;67.56;;
70245;Laerm;57637;49.272;8.590;2023-07-22T09:18:10;48.97;34.01;81.14;;
70245;Laerm;57637;49.272;8.590;2023-07-22T09:20:36;42.46;34.21;49.40;;
70245;Laerm;57637;49.272;8.590;2023-07-22T09:23:01;40.48;32.59;50.67;;
70245;Laerm;57637;49.272;8.590;2023-07-22T09:25:28;42.46;33.91;53.93;;
70245;Laerm;57637;49.272;8.590;2023-07-22T09:27:58;44.58;35.08;58.46;;
70245;Laerm;57637;49.272;8.590;2023-07-22T09:30:33;42.73;36.05;62.45;;
70245;Laerm;57637;49.272;8.590;2023-07-22T09:33:01;41.24;35.70;61.16;;
70245;Laerm;57637;49.272;8.590;2023-07-22T09:38:08;48.38;37.36;65.96;;
70245;Laerm;57637;49.272;8.590;2023-07-22T09:40:33;46.15;36.17;59.05;;
70245;Laerm;57637;49.272;8.590;2023-07-22T09:43:01;45.01;36.75;61.70;;
70245;Laerm;57637;49.272;8.590;2023-07-22T09:45:29;42.83;35.37;53.19;;
70245;Laerm;57637;49.272;8.590;2023-07-22T09:47:55;42.56;33.83;72.09;;
70245;Laerm;57637;49.272;8.590;2023-07-22T09:50:23;47.65;34.79;71.95;;
70245;Laerm;57637;49.272;8.590;2023-07-22T09:52:51;49.77;35.41;69.89;;
70245;Laerm;57637;49.272;8.590;2023-07-22T09:55:27;47.43;38.52;60.24;;
70245;Laerm;57637;49.272;8.590;2023-07-22T09:58:00;40.23;34.37;53.62;;
70245;Laerm;57637;49.272;8.590;2023-07-22T10:00:36;41.30;34.05;56.15;;
70245;Laerm;57637;49.272;8.590;2023-07-22T10:03:03;41.19;35.54;52.35;;
70245;Laerm;57637;49.272;8.590;2023-07-22T10:05:34;45.83;35.02;58.66;;
70245;Laerm;57637;49.272;8.590;2023-07-22T10:08:02;45.82;35.43;62.99;;
70245;Laerm;57637;49.272;8.590;2023-07-22T10:10:30;50.96;36.09;63.61;;
70245;Laerm;57637;49.272;8.590;2023-07-22T10:12:56;50.72;35.09;65.58;;
70245;Laerm;57637;49.272;8.590;2023-07-22T10:15:24;40.68;35.02;52.04;;
70245;Laerm;57637;49.272;8.590;2023-07-22T10:17:50;40.76;34.89;57.81;;
70245;Laerm;57637;49.272;8.590;2023-07-22T10:20:16;51.88;35.98;66.67;;
70245;Laerm;57637;49.272;8.590;2023-07-22T10:22:46;47.33;35.98;65.79;;
70245;Laerm;57637;49.272;8.590;2023-07-22T10:25:14;43.21;35.10;58.24;;
70245;Laerm;57637;49.272;8.590;2023-07-22T10:27:40;43.18;36.49;56.14;;
70245;Laerm;57637;49.272;8.590;2023-07-22T10:30:11;41.87;35.25;59.14;;
70245;Laerm;57637;49.272;8.590;2023-07-22T10:32:38;42.81;36.28;55.90;;
70245;Laerm;57637;49.272;8.590;2023-07-22T10:35:08;41.39;35.34;62.78;;
70245;Laerm;57637;49.272;8.590;2023-07-22T10:37:35;42.09;36.00;59.50;;
70245;Laerm;57637;49.272;8.590;2023-07-22T10:40:17;52.14;35.54;66.06;;
70245;Laerm;57637;49.272;8.590;2023-07-22T10:42:57;47.47;35.36;73.66;;
70245;Laerm;57637;49.272;8.590;2023-07-22T10:45:30;43.30;34.88;58.17;;
70245;Laerm;57637;49.272;8.590;2023-07-22T10:48:06;44.52;35.67;59.25;;
70245;Laerm;57637;49.272;8.590;2023-07-22T10:50:48;38.96;33.27;57.25;;
70245;Laerm;57637;49.272;8.590;2023-07-22T10:59:18;43.03;36.59;57.16;;
70245;Laerm;57637;49.272;8.590;2023-07-22T11:04:13;42.28;34.70;56.25;;
70245;Laerm;57637;49.272;8.590;2023-07-22T11:06:52;41.39;34.39;60.91;;
70245;Laerm;57637;49.272;8.590;2023-07-22T11:14:22;41.36;35.92;62.95;;
70245;Laerm;57637;49.272;8.590;2023-07-22T11:16:48;45.00;35.71;61.10;;
70245;Laerm;57637;49.272;8.590;2023-07-22T11:19:15;43.60;37.67;57.51;;
70245;Laerm;57637;49.272;8.590;2023-07-22T11:21:42;43.13;35.85;58.45;;
70245;Laerm;57637;49.272;8.590;2023-07-22T11:24:07;40.95;35.25;50.57;;
70245;Laerm;57637;49.272;8.590;2023-07-22T11:26:34;40.06;35.30;58.14;;
70245;Laerm;57637;49.272;8.590;2023-07-22T11:29:00;41.67;35.68;62.32;;
70245;Laerm;57637;49.272;8.590;2023-07-22T11:31:37;43.57;35.01;62.77;;
70245;Laerm;57637;49.272;8.590;2023-07-22T11:34:05;44.95;36.92;57.90;;
70245;Laerm;57637;49.272;8.590;2023-07-22T11:36:31;41.23;35.82;59.43;;
70245;Laerm;57637;49.272;8.590;2023-07-22T11:39:05;42.93;36.19;60.63;;
70245;Laerm;57637;49.272;8.590;2023-07-22T11:41:32;45.47;37.15;62.63;;
70245;Laerm;57637;49.272;8.590;2023-07-22T11:43:58;43.14;34.62;56.55;;
70245;Laerm;57637;49.272;8.590;2023-07-22T11:46:27;40.85;33.79;56.63;;
70245;Laerm;57637;49.272;8.590;2023-07-22T11:48:54;43.40;33.80;57.05;;
70245;Laerm;57637;49.272;8.590;2023-07-22T11:51:21;41.19;34.13;59.06;;
70245;Laerm;57637;49.272;8.590;2023-07-22T11:53:53;43.22;35.88;59.96;;
70245;Laerm;57637;49.272;8.590;2023-07-22T11:56:24;44.95;36.87;56.31;;
70245;Laerm;57637;49.272;8.590;2023-07-22T11:58:54;43.69;34.24;60.60;;
70245;Laerm;57637;49.272;8.590;2023-07-22T12:01:20;42.40;34.66;57.06;;
70245;Laerm;57637;49.272;8.590;2023-07-22T12:03:47;43.63;34.96;60.38;;
70245;Laerm;57637;49.272;8.590;2023-07-22T12:06:13;47.22;35.62;64.12;;
70245;Laerm;57637;49.272;8.590;2023-07-22T12:08:46;45.46;33.78;60.73;;
70245;Laerm;57637;49.272;8.590;2023-07-22T12:11:16;42.97;34.72;56.59;;
70245;Laerm;57637;49.272;8.590;2023-07-22T12:13:42;48.16;36.37;65.41;;
70245;Laerm;57637;49.272;8.590;2023-07-22T12:16:11;42.47;35.59;63.10;;
70245;Laerm;57637;49.272;8.590;2023-07-22T12:18:42;42.00;36.38;55.51;;
70245;Laerm;57637;49.272;8.590;2023-07-22T12:21:07;50.51;36.94;61.40;;
70245;Laerm;57637;49.272;8.590;2023-07-22T12:23:34;42.10;36.62;53.08;;
70245;Laerm;57637;49.272;8.590;2023-07-22T12:25:59;42.94;36.34;57.13;;
70245;Laerm;57637;49.272;8.590;2023-07-22T12:28:25;41.87;34.70;60.14;;
70245;Laerm;57637;49.272;8.590;2023-07-22T12:30:50;42.37;33.05;55.30;;
70245;Laerm;57637;49.272;8.590;2023-07-22T12:33:15;40.41;34.57;51.63;;
70245;Laerm;57637;49.272;8.590;2023-07-22T12:35:41;39.60;32.53;53.23;;
70245;Laerm;57637;49.272;8.590;2023-07-22T12:38:06;40.72;33.97;54.23;;
70245;Laerm;57637;49.272;8.590;2023-07-22T12:40:31;42.03;36.19;54.56;;
70245;Laerm;57637;49.272;8.590;2023-07-22T12:42:57;44.58;34.89;55.30;;
70245;Laerm;57637;49.272;8.590;2023-07-22T12:45:22;42.74;35.43;58.57;;
70245;Laerm;57637;49.272;8.590;2023-07-22T12:47:48;43.73;34.20;54.62;;
70245;Laerm;57637;49.272;8.590;2023-07-22T12:50:14;43.79;34.46;56.89;;
70245;Laerm;57637;49.272;8.590;2023-07-22T12:52:39;42.18;34.78;57.97;;
70245;Laerm;57637;49.272;8.590;2023-07-22T12:55:04;40.58;33.72;56.77;;
70245;Laerm;57637;49.272;8.590;2023-07-22T12:57:30;47.43;36.24;56.23;;
70245;Laerm;57637;49.272;8.590;2023-07-22T12:59:55;45.84;35.97;58.85;;
70245;Laerm;57637;49.272;8.590;2023-07-22T13:02:21;40.91;34.98;67.55;;
70245;Laerm;57637;49.272;8.590;2023-07-22T13:04:47;43.86;35.12;57.55;;
70245;Laerm;57637;49.272;8.590;2023-07-22T13:07:13;43.60;34.90;58.81;;
70245;Laerm;57637;49.272;8.590;2023-07-22T13:09:38;40.66;33.93;53.75;;
70245;Laerm;57637;49.272;8.590;2023-07-22T13:12:04;52.52;35.20;65.19;;
70245;Laerm;57637;49.272;8.590;2023-07-22T13:14:30;57.19;37.06;62.39;;
70245;Laerm;57637;49.272;8.590;2023-07-22T13:16:55;57.76;53.56;61.69;;
70245;Laerm;57637;49.272;8.590;2023-07-22T13:19:20;57.81;52.39;63.28;;
70245;Laerm;57637;49.272;8.590;2023-07-22T13:21:46;56.83;52.23;62.06;;
70245;Laerm;57637;49.272;8.590;2023-07-22T13:24:11;57.13;51.61;61.28;;
70245;Laerm;57637;49.272;8.590;2023-07-22T13:26:36;57.39;33.14;62.07;;
70245;Laerm;57637;49.272;8.590;2023-07-22T13:29:02;42.31;32.75;57.58;;
70245;Laerm;57637;49.272;8.590;2023-07-22T13:31:27;56.61;35.06;64.54;;
70245;Laerm;57637;49.272;8.590;2023-07-22T13:33:53;43.33;34.83;57.60;;
70245;Laerm;57637;49.272;8.590;2023-07-22T13:36:18;45.33;36.48;58.02;;
70245;Laerm;57637;49.272;8.590;2023-07-22T13:38:43;43.64;35.39;61.72;;
70245;Laerm;57637;49.272;8.590;2023-07-22T13:41:09;46.15;35.35;59.19;;
70245;Laerm;57637;49.272;8.590;2023-07-22T13:43:34;46.14;37.18;58.10;;
70245;Laerm;57637;49.272;8.590;2023-07-22T13:45:59;40.34;33.79;65.05;;
70245;Laerm;57637;49.272;8.590;2023-07-22T13:48:25;37.93;33.51;53.30;;
70245;Laerm;57637;49.272;8.590;2023-07-22T13:50:50;41.31;33.96;53.11;;
70245;Laerm;57637;49.272;8.590;2023-07-22T13:53:15;43.03;35.17;70.29;;
70245;Laerm;57637;49.272;8.590;2023-07-22T13:55:41;41.57;35.51;57.10;;
70245;Laerm;57637;49.272;8.590;2023-07-22T13:58:07;41.11;36.27;53.30;;